Time;durP1;ratioP1;P1;durP2;ratioP2;P2;SDS_P1;SDS_P2;PMS_P1;PMS_P2;Temp;Humidity;BMP_temperature;BMP_pressure;BME280_temperature;BME280_humidity;BME280_pressure;Samples;Min_cycle;Max_cycle;Signal;HPM_P1;HPM_P2
2022/05/28 18:40:49;;;;;;;;;2.00;2.00;;;;;22.85;31.97;101455.94;5114325;27;45373;-57
2022/05/28 18:43:15;;;;;;;;;4.00;4.00;;;;;22.95;31.64;101489.69;5095739;27;45324;-57
2022/05/28 18:45:41;;;;;;;;;1.25;1.25;;;;;22.60;32.25;101448.94;5096343;27;45346;-59
2022/05/28 18:48:08;;;;;;;;;1.50;1.50;;;;;22.72;32.62;101479.81;5095105;27;45530;-59
2022/05/28 18:50:35;;;;;;;;;1.75;1.75;;;;;22.68;32.98;101488.41;5096706;27;45436;-57
2022/05/28 18:55:50;;;;;;;;;1.75;1.75;;;;;22.48;33.72;101498.28;5073912;27;45499;-59
2022/05/28 18:58:15;;;;;;;;;2.00;2.00;;;;;22.39;33.17;101501.78;5095790;27;45467;-57
2022/05/28 19:00:41;;;;;;;;;3.00;3.00;;;;;22.26;33.14;101483.69;5095612;27;46142;-59
2022/05/28 19:03:07;;;;;;;;;0.75;0.75;;;;;22.08;33.63;101474.28;5095385;27;45872;-58
2022/05/28 19:05:37;;;;;;;;;2.50;2.00;;;;;22.15;33.66;101507.44;5095499;27;45236;-58
2022/05/28 19:08:03;;;;;;;;;2.00;2.00;;;;;21.97;33.55;101487.94;5096161;27;45322;-57
2022/05/28 19:10:29;;;;;;;;;2.00;2.00;;;;;21.91;34.14;101502.09;5095318;27;45320;-58
2022/05/28 19:12:54;;;;;;;;;0.75;0.75;;;;;21.84;34.22;101506.31;5095699;27;45434;-58
2022/05/28 19:15:24;;;;;;;;;1.50;1.50;;;;;21.79;34.21;101509.38;5095533;27;45323;-58
2022/05/28 19:17:50;;;;;;;;;1.00;1.00;;;;;21.74;34.01;101508.03;5095148;27;45981;-57
2022/05/28 19:20:22;;;;;;;;;1.75;1.75;;;;;21.67;34.05;101509.53;5094961;27;45425;-58
2022/05/28 19:22:50;;;;;;;;;1.75;1.75;;;;;21.66;34.11;101507.78;5095204;27;45279;-56
2022/05/28 19:28:00;;;;;;;;;1.00;1.00;;;;;21.46;34.43;101514.81;5095078;27;45337;-55
2022/05/28 19:30:28;;;;;;;;;1.00;1.00;;;;;21.44;34.07;101514.94;5095194;27;45429;-56
2022/05/28 19:32:56;;;;;;;;;2.75;1.75;;;;;21.33;34.22;101516.78;5094419;27;45383;-59
2022/05/28 19:35:22;;;;;;;;;2.25;1.50;;;;;21.27;34.52;101506.34;5102948;27;45428;-46
2022/05/28 19:37:47;;;;;;;;;2.00;2.00;;;;;21.11;34.49;101510.25;5095397;27;45513;-68
2022/05/28 19:40:16;;;;;;;;;1.00;1.00;;;;;21.14;34.67;101517.31;5089796;27;45583;-48
2022/05/28 19:42:49;;;;;;;;;0.00;0.00;;;;;20.71;34.56;101462.53;5081315;27;45380;-66
2022/05/28 19:45:18;;;;;;;;;1.25;1.25;;;;;21.00;34.63;101526.59;5081426;27;45349;-64
2022/05/28 19:47:46;;;;;;;;;3.00;1.00;;;;;20.95;34.55;101530.63;5080731;27;45904;-64
2022/05/28 19:50:15;;;;;;;;;1.00;1.00;;;;;20.82;34.43;101529.84;5081041;27;45388;-65
2022/05/28 19:52:41;;;;;;;;;2.00;2.00;;;;;20.76;34.89;101532.03;5081066;27;45380;-65
2022/05/28 19:55:07;;;;;;;;;1.00;1.00;;;;;20.66;34.46;101544.66;5081471;27;45310;-63
2022/05/28 19:57:33;;;;;;;;;2.25;1.00;;;;;20.44;34.27;101513.66;5081082;27;45480;-66
2022/05/28 19:59:58;;;;;;;;;0.75;0.75;;;;;20.53;34.68;101549.25;5079589;28;47238;-66
2022/05/28 20:02:29;;;;;;;;;1.75;1.75;;;;;20.46;34.50;101547.97;5080585;28;45441;-63
2022/05/28 20:04:55;;;;;;;;;3.00;1.00;;;;;20.37;33.75;101559.56;5081392;27;45300;-64
2022/05/28 20:07:21;;;;;;;;;4.50;2.75;;;;;20.20;34.21;101538.97;5080666;27;45562;-64
2022/05/28 20:09:46;;;;;;;;;0.00;0.00;;;;;20.13;33.98;101559.47;5080982;27;45388;-64
2022/05/28 20:12:12;;;;;;;;;0.75;0.75;;;;;19.99;34.56;101544.13;5080747;28;45267;-64
2022/05/28 20:14:38;;;;;;;;;1.75;1.75;;;;;19.99;34.46;101560.47;5081338;28;45686;-64
2022/05/28 20:17:06;;;;;;;;;1.00;1.00;;;;;19.92;34.59;101561.88;5080587;28;45418;-64
2022/05/28 20:19:34;;;;;;;;;1.00;1.00;;;;;19.94;34.54;101569.94;5080700;28;45472;-64
2022/05/28 20:22:00;;;;;;;;;1.00;1.00;;;;;19.83;34.72;101558.94;5081062;27;45298;-63
2022/05/28 20:24:28;;;;;;;;;3.00;0.50;;;;;19.66;34.89;101543.84;5079619;27;45679;-64
2022/05/28 20:26:53;;;;;;;;;1.75;0.75;;;;;19.59;35.11;101542.53;5080761;27;45348;-65
2022/05/28 20:29:19;;;;;;;;;0.75;0.75;;;;;19.71;35.03;101560.72;5080297;27;46335;-64
2022/05/28 20:31:46;;;;;;;;;4.00;1.75;;;;;19.65;35.45;101566.56;5080623;27;45432;-63
2022/05/28 20:34:17;;;;;;;;;2.00;2.00;;;;;19.58;35.26;101563.41;5081230;27;45294;-64
2022/05/28 20:36:44;;;;;;;;;1.75;1.00;;;;;19.48;35.34;101545.16;5079177;28;45468;-63
2022/05/28 20:39:09;;;;;;;;;2.50;2.50;;;;;19.58;35.83;101562.53;5080456;28;45377;-63
2022/05/28 20:41:35;;;;;;;;;1.75;1.75;;;;;19.58;35.35;101559.81;5080263;27;45341;-64
2022/05/28 20:44:01;;;;;;;;;1.50;1.50;;;;;19.56;35.70;101568.09;5080778;28;45427;-64
2022/05/28 20:46:27;;;;;;;;;2.75;2.75;;;;;19.40;35.51;101540.19;5080398;27;45469;-63
2022/05/28 20:48:57;;;;;;;;;0.50;0.50;;;;;19.51;36.02;101567.56;5080218;27;45648;-65
2022/05/28 20:51:26;;;;;;;;;1.50;1.50;;;;;19.48;35.49;101558.75;5079713;27;45381;-60
2022/05/28 20:53:52;;;;;;;;;2.00;2.00;;;;;19.43;35.42;101559.03;5080102;27;45121;-60
2022/05/28 20:56:18;;;;;;;;;0.75;0.75;;;;;19.36;34.92;101556.84;5080193;27;45564;-61
2022/05/28 20:58:43;;;;;;;;;1.00;1.00;;;;;19.38;35.37;101557.63;5080398;28;45359;-59
2022/05/28 21:01:13;;;;;;;;;1.00;1.00;;;;;19.39;35.69;101560.25;5080079;27;45387;-60
2022/05/28 21:03:42;;;;;;;;;1.00;1.00;;;;;19.37;34.90;101550.44;5080114;27;45385;-60
2022/05/28 21:06:20;;;;;;;;;0.00;0.00;;;;;19.32;35.53;101553.47;5079965;27;45334;-60
2022/05/28 21:08:46;;;;;;;;;3.75;1.00;;;;;19.32;34.98;101558.91;5080115;27;45964;-60
2022/05/28 21:11:15;;;;;;;;;1.00;0.75;;;;;19.14;34.89;101533.84;5079850;28;45319;-61
2022/05/28 21:13:40;;;;;;;;;3.50;2.00;;;;;19.28;34.88;101547.38;5080222;27;45333;-59
2022/05/28 21:16:09;;;;;;;;;0.75;0.75;;;;;19.25;35.06;101555.75;5079863;27;45486;-60
2022/05/28 21:18:37;;;;;;;;;0.00;0.00;;;;;19.20;34.98;101554.31;5079728;28;46186;-59
2022/05/28 21:21:08;;;;;;;;;1.00;1.00;;;;;19.17;35.02;101549.09;5079846;27;45400;-61
2022/05/28 21:23:34;;;;;;;;;2.25;1.00;;;;;19.12;35.26;101554.00;5080117;27;45302;-60
2022/05/28 21:31:27;;;;;;;;;1.00;1.00;;;;;18.97;35.20;101550.44;5079337;28;45335;-60
2022/05/28 21:33:53;;;;;;;;;0.25;0.00;;;;;18.99;34.82;101572.97;5079648;27;45276;-60
2022/05/28 21:36:18;;;;;;;;;3.00;0.00;;;;;18.90;34.95;101565.44;5079618;27;45444;-60
2022/05/28 21:38:43;;;;;;;;;0.00;0.00;;;;;18.80;35.02;101572.44;5079303;27;45640;-60
2022/05/28 21:41:09;;;;;;;;;0.00;0.00;;;;;18.56;35.42;101550.47;5079725;27;45652;-61
2022/05/28 21:43:34;;;;;;;;;0.00;0.00;;;;;18.59;35.84;101572.06;5079838;27;45323;-59
2022/05/28 21:45:59;;;;;;;;;1.00;1.00;;;;;18.54;36.07;101577.75;5078305;28;46597;-60
2022/05/28 21:48:31;;;;;;;;;1.00;1.00;;;;;18.44;35.98;101560.34;5079097;27;45211;-59
2022/05/28 21:50:56;;;;;;;;;0.00;0.00;;;;;18.36;36.10;101568.09;5079446;27;45169;-59
2022/05/28 21:53:25;;;;;;;;;0.00;0.00;;;;;18.26;36.65;101568.81;5079307;27;45271;-60
2022/05/28 21:55:50;;;;;;;;;0.00;0.00;;;;;18.20;37.00;101572.78;5078165;28;47436;-60
2022/05/28 21:58:16;;;;;;;;;0.00;0.00;;;;;18.18;36.69;101569.31;5077702;28;46087;-61
2022/05/28 22:00:45;;;;;;;;;1.00;1.00;;;;;18.17;37.07;101566.69;5079458;27;45263;-60
2022/05/28 22:03:18;;;;;;;;;1.00;1.00;;;;;18.14;36.67;101567.75;5078851;27;45334;-60
2022/05/28 22:05:44;;;;;;;;;1.50;0.75;;;;;18.08;37.18;101568.16;5079146;27;45416;-61
2022/05/28 22:08:09;;;;;;;;;2.00;1.00;;;;;18.07;37.22;101563.69;5079075;27;45370;-60
2022/05/28 22:10:35;;;;;;;;;2.50;1.25;;;;;18.00;37.56;101559.63;5079146;27;45312;-59
2022/05/28 22:13:01;;;;;;;;;1.00;1.00;;;;;17.96;37.32;101561.66;5079301;28;45369;-60
2022/05/28 22:15:27;;;;;;;;;2.00;1.00;;;;;17.89;37.31;101560.28;5079166;28;45266;-61
2022/05/28 22:17:53;;;;;;;;;1.00;1.00;;;;;17.76;37.51;101551.22;5078884;27;46380;-59
2022/05/28 22:20:21;;;;;;;;;1.00;1.00;;;;;17.75;37.79;101554.88;5078880;27;45381;-60
2022/05/28 22:22:46;;;;;;;;;1.50;1.00;;;;;17.70;37.77;101559.69;5079065;28;45454;-59
2022/05/28 22:25:12;;;;;;;;;3.75;2.00;;;;;17.64;37.96;101560.97;5078682;27;45516;-60
2022/05/28 22:27:37;;;;;;;;;1.00;1.00;;;;;17.56;37.96;101544.28;5079130;27;46308;-61
2022/05/28 22:30:04;;;;;;;;;0.25;0.25;;;;;17.59;38.20;101567.63;5078749;27;45442;-60
2022/05/28 22:32:30;;;;;;;;;1.25;1.00;;;;;17.46;38.10;101559.34;5078803;27;45387;-59
2022/05/28 22:34:56;;;;;;;;;1.00;1.00;;;;;17.43;38.44;101569.53;5078601;28;45413;-60
2022/05/28 22:37:22;;;;;;;;;1.00;1.00;;;;;17.40;38.72;101570.59;5078517;28;46408;-60
2022/05/28 22:39:48;;;;;;;;;1.00;1.00;;;;;17.42;38.76;101568.66;5078707;27;45704;-59
2022/05/28 22:42:14;;;;;;;;;1.00;1.00;;;;;17.42;38.81;101571.38;5078782;27;45356;-61
2022/05/28 22:47:24;;;;;;;;;3.25;0.25;;;;;17.35;38.57;101559.16;5078425;28;45396;-60
2022/05/28 22:49:50;;;;;;;;;1.00;1.00;;;;;17.28;38.84;101550.50;5078417;28;45227;-60
2022/05/28 22:52:16;;;;;;;;;0.00;0.00;;;;;17.28;38.95;101552.34;5079139;27;45571;-60
2022/05/28 22:54:42;;;;;;;;;2.00;1.00;;;;;17.18;38.78;101560.16;5078353;28;45429;-60
2022/05/28 22:57:08;;;;;;;;;0.50;0.50;;;;;17.12;39.27;101543.41;5078675;28;45349;-60
2022/05/28 22:59:34;;;;;;;;;1.00;1.00;;;;;17.04;39.35;101552.00;5078404;28;45301;-60
2022/05/28 23:02:00;;;;;;;;;0.50;0.50;;;;;16.85;39.36;101535.09;5078520;28;45392;-60
2022/05/28 23:04:30;;;;;;;;;0.50;0.50;;;;;16.88;39.23;101549.34;5078503;27;45397;-60
2022/05/28 23:06:57;;;;;;;;;2.00;1.00;;;;;16.83;39.83;101559.59;5077039;28;47189;-60
2022/05/28 23:09:22;;;;;;;;;1.00;1.00;;;;;16.71;40.50;101537.75;5078234;28;45478;-61
2022/05/28 23:11:48;;;;;;;;;1.00;1.00;;;;;16.63;40.29;101538.22;5078792;27;45301;-61
2022/05/28 23:14:13;;;;;;;;;1.00;1.00;;;;;16.63;40.34;101535.50;5078471;27;45401;-61
2022/05/28 23:16:47;;;;;;;;;1.00;1.00;;;;;16.61;40.13;101546.41;5080869;27;45367;-61
2022/05/28 23:19:15;;;;;;;;;3.00;0.50;;;;;16.59;40.57;101536.59;5082095;27;45404;-61
2022/05/28 23:21:42;;;;;;;;;1.00;1.00;;;;;16.66;40.82;101545.28;5081969;27;45317;-59
2022/05/28 23:26:53;;;;;;;;;2.75;2.00;;;;;16.67;40.36;101539.78;5081958;28;45895;-61
2022/05/28 23:29:19;;;;;;;;;1.00;1.00;;;;;16.57;41.17;101525.00;5081805;27;45393;-61
